createdAt,value
2022-08-11T00:01:29.939Z,21.50
2022-08-11T00:03:58.214Z,21.40
2022-08-11T00:06:32.490Z,21.50
2022-08-11T00:09:00.736Z,21.50
2022-08-11T00:11:44.919Z,21.50
2022-08-11T00:14:24.147Z,21.40
2022-08-11T00:17:10.853Z,21.40
2022-08-11T00:20:14.239Z,21.50
2022-08-11T00:22:35.900Z,21.60
2022-08-11T00:25:16.700Z,21.80
2022-08-11T00:27:43.957Z,22.00
2022-08-11T00:30:12.620Z,22.00
2022-08-11T00:32:42.210Z,21.60
2022-08-11T00:35:56.047Z,21.30
2022-08-11T00:38:02.860Z,21.10
2022-08-11T00:41:01.668Z,21.20
2022-08-11T00:44:05.612Z,21.20
2022-08-11T00:46:48.416Z,21.10
2022-08-11T00:50:00.235Z,21.20
2022-08-11T00:52:32.626Z,21.20
2022-08-11T00:55:34.068Z,21.00
2022-08-11T00:58:22.653Z,20.80
2022-08-11T01:01:08.243Z,20.70
2022-08-11T01:04:09.285Z,20.90
2022-08-11T01:08:00.486Z,21.10
2022-08-11T01:10:44.109Z,21.20
2022-08-11T01:13:32.551Z,21.20
2022-08-11T01:16:11.245Z,21.00
2022-08-11T01:18:58.082Z,20.90
2022-08-11T01:21:46.944Z,21.00
2022-08-11T01:24:19.628Z,21.00
2022-08-11T01:27:20.095Z,20.90
2022-08-11T01:30:17.514Z,20.90
2022-08-11T01:33:23.185Z,20.80
2022-08-11T01:36:10.569Z,20.80
2022-08-11T01:39:18.460Z,20.70
2022-08-11T01:42:19.336Z,20.50
2022-08-11T01:45:26.534Z,20.40
2022-08-11T01:48:02.913Z,20.20
2022-08-11T01:50:54.526Z,20.10
2022-08-11T01:53:36.725Z,20.00
2022-08-11T01:56:49.654Z,19.90
2022-08-11T01:59:34.305Z,20.20
2022-08-11T02:02:47.578Z,20.10
2022-08-11T02:05:20.380Z,20.10
2022-08-11T02:08:10.028Z,20.00
2022-08-11T02:11:12.801Z,20.00
2022-08-11T02:13:49.393Z,20.00
2022-08-11T02:16:48.752Z,19.80
2022-08-11T02:19:37.218Z,19.80
2022-08-11T02:22:55.012Z,19.90
2022-08-11T02:25:34.174Z,19.80
2022-08-11T02:28:19.205Z,19.70
2022-08-11T02:32:24.306Z,19.70
2022-08-11T02:35:00.228Z,19.70
2022-08-11T02:37:33.031Z,19.70
2022-08-11T02:40:00.472Z,19.70
2022-08-11T02:42:37.962Z,19.70
2022-08-11T02:45:33.369Z,19.50
2022-08-11T02:48:41.130Z,19.20
2022-08-11T02:51:14.045Z,19.20
2022-08-11T02:54:05.412Z,19.10
2022-08-11T02:56:56.837Z,18.80
2022-08-11T02:59:49.548Z,18.80
2022-08-11T03:02:53.633Z,18.80
2022-08-11T03:05:42.232Z,19.00
2022-08-11T03:08:11.640Z,19.20
2022-08-11T03:11:07.256Z,18.90
2022-08-11T03:13:57.720Z,18.80
2022-08-11T03:16:47.127Z,18.60
2022-08-11T03:19:34.485Z,18.50
2022-08-11T03:22:07.386Z,18.50
2022-08-11T03:24:40.405Z,18.90
2022-08-11T03:27:20.716Z,18.80
2022-08-11T03:30:13.806Z,18.90
2022-08-11T03:33:34.064Z,19.00
2022-08-11T03:37:01.757Z,18.90
2022-08-11T03:39:37.992Z,18.90
2022-08-11T03:42:30.717Z,18.90
2022-08-11T03:45:19.569Z,18.80
2022-08-11T03:48:10.420Z,18.70
2022-08-11T03:51:02.657Z,18.90
2022-08-11T03:54:11.950Z,18.90
2022-08-11T03:57:15.953Z,18.80
2022-08-11T04:00:33.203Z,18.50
2022-08-11T04:03:43.836Z,18.40
2022-08-11T04:06:38.889Z,18.30
2022-08-11T04:09:35.913Z,18.30
2022-08-11T04:12:35.628Z,18.20
2022-08-11T04:16:11.251Z,18.30
2022-08-11T04:18:58.461Z,18.30
2022-08-11T04:21:46.423Z,18.50
2022-08-11T04:24:49.735Z,18.50
2022-08-11T04:27:42.501Z,18.50
2022-08-11T04:30:17.758Z,18.50
2022-08-11T04:33:21.232Z,18.30
2022-08-11T04:36:00.377Z,18.10
2022-08-11T04:38:30.432Z,18.20
2022-08-11T04:41:57.098Z,18.10
2022-08-11T04:45:00.510Z,18.20
2022-08-11T04:48:20.724Z,18.20
2022-08-11T04:51:37.245Z,18.20
2022-08-11T04:55:06.973Z,18.10
2022-08-11T04:58:21.138Z,18.10
2022-08-11T05:01:41.218Z,18.10
2022-08-11T05:04:45.488Z,18.20
2022-08-11T05:07:40.675Z,18.30
2022-08-11T05:10:33.142Z,18.40
2022-08-11T05:13:30.548Z,18.50
2022-08-11T05:16:29.219Z,18.60
2022-08-11T05:19:17.380Z,18.70
2022-08-11T05:22:11.587Z,18.90
2022-08-11T05:25:15.489Z,18.90
2022-08-11T05:28:32.334Z,18.90
2022-08-11T05:31:25.922Z,19.00
2022-08-11T05:34:28.183Z,19.00
2022-08-11T05:37:25.835Z,19.10
2022-08-11T05:40:34.113Z,19.30
2022-08-11T05:43:22.785Z,19.30
2022-08-11T05:46:25.673Z,19.20
2022-08-11T05:49:12.857Z,19.20
2022-08-11T05:52:05.517Z,19.20
2022-08-11T05:55:00.037Z,19.30
2022-08-11T05:57:48.972Z,19.40
2022-08-11T06:02:51.987Z,19.50
2022-08-11T06:05:19.589Z,19.50
2022-08-11T06:07:49.468Z,19.60
2022-08-11T06:10:33.399Z,19.50
2022-08-11T06:13:01.757Z,19.60
2022-08-11T06:15:31.454Z,19.60
2022-08-11T06:18:01.327Z,19.90
2022-08-11T06:20:32.795Z,20.10
2022-08-11T06:23:03.755Z,20.20
2022-08-11T06:25:32.576Z,20.30
2022-08-11T06:28:00.913Z,20.50
2022-08-11T06:30:35.295Z,20.60
2022-08-11T06:33:04.812Z,20.70
2022-08-11T06:35:38.840Z,21.50
2022-08-11T06:38:16.136Z,23.10
2022-08-11T06:41:43.297Z,24.70
2022-08-11T06:44:13.202Z,26.00
2022-08-11T06:46:41.511Z,26.50
2022-08-11T06:49:30.308Z,27.70
2022-08-11T06:52:04.452Z,28.30
2022-08-11T06:54:41.382Z,29.60
2022-08-11T06:57:32.233Z,28.70
2022-08-11T07:00:19.257Z,28.30
2022-08-11T07:02:49.092Z,29.70
2022-08-11T07:05:37.534Z,28.10
2022-08-11T07:08:47.987Z,27.70
2022-08-11T07:12:00.885Z,28.50
2022-08-11T07:14:49.814Z,28.30
2022-08-11T07:17:23.625Z,28.20
2022-08-11T07:20:21.316Z,30.50
2022-08-11T07:23:15.394Z,31.60
2022-08-11T07:26:05.642Z,30.90
2022-08-11T07:28:55.050Z,30.70
2022-08-11T07:31:31.880Z,31.40
2022-08-11T07:34:17.444Z,31.20
2022-08-11T07:36:52.423Z,32.20
2022-08-11T07:39:33.268Z,33.00
2022-08-11T07:42:07.001Z,35.00
2022-08-11T07:44:55.017Z,35.80
2022-08-11T07:47:42.361Z,36.90
2022-08-11T07:50:28.744Z,36.50
2022-08-11T07:53:02.738Z,37.80
2022-08-11T07:55:50.805Z,36.10
2022-08-11T07:58:45.631Z,37.80
2022-08-11T08:01:42.795Z,37.20
2022-08-11T08:04:31.973Z,37.70
2022-08-11T08:07:19.585Z,37.80
2022-08-11T08:10:06.299Z,38.00
2022-08-11T08:12:52.729Z,37.00
2022-08-11T08:15:40.183Z,35.90
2022-08-11T08:18:26.243Z,36.20
2022-08-11T08:20:56.769Z,36.90
2022-08-11T08:23:34.147Z,37.70
2022-08-11T08:26:04.467Z,37.90
2022-08-11T08:28:33.536Z,37.70
2022-08-11T08:31:00.817Z,37.80
2022-08-11T08:33:30.207Z,37.40
2022-08-11T08:36:12.588Z,37.90
2022-08-11T08:38:42.181Z,37.10
2022-08-11T08:41:10.127Z,38.60
2022-08-11T08:43:47.568Z,38.60
2022-08-11T08:46:22.030Z,39.50
2022-08-11T08:48:50.457Z,39.10
2022-08-11T08:52:01.044Z,38.60
2022-08-11T08:54:43.553Z,37.70
2022-08-11T08:57:12.091Z,37.90
2022-08-11T08:59:49.047Z,35.70
2022-08-11T09:02:19.952Z,37.40
2022-08-11T09:05:03.929Z,38.40
2022-08-11T09:07:38.835Z,38.80
2022-08-11T09:10:09.313Z,38.20
2022-08-11T09:12:39.214Z,38.20
2022-08-11T09:15:09.085Z,37.40
2022-08-11T09:17:44.562Z,36.50
2022-08-11T09:20:29.168Z,38.20
2022-08-11T09:26:30.859Z,37.80
2022-08-11T09:28:59.510Z,37.30
2022-08-11T09:31:30.260Z,36.80
2022-08-11T09:33:58.594Z,37.50
2022-08-11T09:36:45.145Z,38.70
2022-08-11T09:39:32.355Z,40.50
2022-08-11T09:42:04.401Z,40.20
2022-08-11T09:44:49.833Z,39.30
2022-08-11T09:47:26.204Z,38.50
2022-08-11T09:50:01.707Z,38.60
2022-08-11T09:52:37.774Z,38.50
2022-08-11T09:55:11.047Z,38.00
2022-08-11T09:58:04.696Z,37.70
2022-08-11T10:00:34.253Z,37.40
2022-08-11T10:03:02.698Z,37.60
2022-08-11T10:05:49.505Z,39.30
2022-08-11T10:08:19.672Z,37.30
2022-08-11T10:10:47.939Z,37.40
2022-08-11T10:14:04.838Z,39.70
2022-08-11T10:16:15.534Z,40.30
2022-08-11T10:18:51.501Z,39.50
2022-08-11T10:21:25.047Z,37.30
2022-08-11T10:24:12.168Z,37.00
2022-08-11T10:26:54.477Z,38.40
2022-08-11T10:29:50.190Z,39.00
2022-08-11T10:32:57.393Z,38.70
2022-08-11T10:35:31.657Z,38.50
2022-08-11T10:38:08.222Z,39.30
2022-08-11T10:40:40.953Z,39.40
2022-08-11T10:44:01.533Z,40.60
2022-08-11T10:46:28.567Z,40.30
2022-08-11T10:48:59.111Z,41.10
2022-08-11T10:51:51.526Z,40.00
2022-08-11T10:54:39.606Z,39.30
2022-08-11T10:57:26.002Z,39.40
2022-08-11T10:59:55.077Z,39.60
2022-08-11T11:02:22.553Z,38.10
2022-08-11T11:05:24.929Z,38.50
2022-08-11T11:08:33.089Z,39.60
2022-08-11T11:11:02.621Z,40.80
2022-08-11T11:13:53.217Z,42.90
2022-08-11T11:16:44.266Z,42.00
2022-08-11T11:19:13.070Z,40.30
2022-08-11T11:21:42.337Z,39.60
2022-08-11T11:24:37.436Z,39.30
2022-08-11T11:27:09.785Z,38.90
2022-08-11T11:30:02.917Z,39.80
2022-08-11T11:32:35.632Z,39.80
2022-08-11T11:35:26.759Z,41.40
2022-08-11T11:38:04.459Z,41.40
2022-08-11T11:40:33.150Z,42.50
2022-08-11T11:43:00.950Z,41.60
2022-08-11T11:45:27.998Z,39.70
2022-08-11T11:47:58.286Z,39.60
2022-08-11T11:50:25.209Z,39.20
2022-08-11T11:53:00.229Z,39.00
2022-08-11T11:55:28.136Z,38.80
2022-08-11T11:58:18.480Z,38.10
2022-08-11T12:01:05.949Z,37.90
2022-08-11T12:03:36.033Z,39.80
2022-08-11T12:06:04.141Z,39.40
2022-08-11T12:08:32.145Z,39.30
2022-08-11T12:11:20.874Z,40.40
2022-08-11T12:13:50.940Z,41.40
2022-08-11T12:16:33.991Z,42.50
2022-08-11T12:19:06.678Z,42.80
2022-08-11T12:21:35.938Z,40.40
2022-08-11T12:24:22.792Z,38.00
2022-08-11T12:27:17.860Z,38.00
2022-08-11T12:29:55.336Z,38.90
2022-08-11T12:32:25.918Z,39.50
2022-08-11T12:34:53.653Z,39.10
2022-08-11T12:37:24.376Z,39.40
2022-08-11T12:40:43.494Z,40.00
2022-08-11T12:43:37.122Z,39.80
2022-08-11T12:46:14.113Z,39.90
2022-08-11T12:49:15.181Z,40.80
2022-08-11T12:52:11.286Z,39.80
2022-08-11T12:55:39.304Z,39.30
2022-08-11T12:58:17.553Z,39.50
2022-08-11T13:01:04.432Z,38.50
2022-08-11T13:03:56.433Z,38.50
2022-08-11T13:06:25.208Z,39.50
2022-08-11T13:08:53.282Z,38.60
2022-08-11T13:11:56.267Z,39.60
2022-08-11T13:14:27.330Z,40.80
2022-08-11T13:17:13.444Z,39.50
2022-08-11T13:19:47.474Z,38.00
2022-08-11T13:22:18.681Z,36.80
2022-08-11T13:24:46.241Z,37.00
2022-08-11T13:27:13.101Z,37.30
2022-08-11T13:29:42.672Z,38.00
2022-08-11T13:32:11.365Z,38.20
2022-08-11T13:34:42.280Z,35.30
2022-08-11T13:37:15.187Z,34.50
2022-08-11T13:39:47.195Z,34.60
2022-08-11T13:42:16.389Z,34.90
2022-08-11T13:44:44.322Z,34.50
2022-08-11T13:47:14.349Z,33.90
2022-08-11T13:49:42.605Z,33.60
2022-08-11T13:52:17.567Z,33.30
2022-08-11T13:54:47.942Z,33.00
2022-08-11T13:58:07.179Z,33.00
2022-08-11T14:00:23.572Z,33.10
2022-08-11T14:02:56.860Z,33.10
2022-08-11T14:05:40.348Z,33.30
2022-08-11T14:08:37.143Z,33.20
2022-08-11T14:12:23.261Z,33.20
2022-08-11T14:14:21.204Z,33.10
2022-08-11T14:16:51.093Z,33.20
2022-08-11T14:19:24.085Z,33.00
2022-08-11T14:22:08.649Z,32.90
2022-08-11T14:24:40.821Z,32.50
2022-08-11T14:27:39.130Z,32.50
2022-08-11T14:29:58.428Z,32.80
2022-08-11T14:32:26.785Z,32.80
2022-08-11T14:34:55.086Z,32.50
2022-08-11T14:37:25.104Z,32.80
2022-08-11T14:40:02.230Z,32.70
2022-08-11T14:42:48.649Z,32.80
2022-08-11T14:45:55.544Z,32.50
2022-08-11T14:48:23.017Z,32.40
2022-08-11T14:50:50.438Z,32.50
2022-08-11T14:53:18.822Z,32.50
2022-08-11T14:56:05.334Z,32.50
2022-08-11T14:58:33.871Z,32.40
2022-08-11T15:01:02.466Z,32.40
2022-08-11T15:03:33.443Z,32.50
2022-08-11T15:06:02.444Z,32.50
2022-08-11T15:08:51.985Z,32.50
2022-08-11T15:11:40.129Z,32.30
2022-08-11T15:14:09.262Z,32.30
2022-08-11T15:17:02.654Z,32.30
2022-08-11T15:19:40.600Z,32.20
2022-08-11T15:22:28.710Z,32.30
2022-08-11T15:24:58.468Z,32.30
2022-08-11T15:27:44.814Z,32.20
2022-08-11T15:30:33.166Z,32.00
2022-08-11T15:33:26.002Z,32.10
2022-08-11T15:36:12.928Z,32.20
2022-08-11T15:38:49.293Z,32.00
2022-08-11T15:41:58.487Z,32.20
2022-08-11T15:45:02.818Z,32.30
2022-08-11T15:47:41.622Z,32.30
2022-08-11T15:50:14.815Z,32.30
2022-08-11T15:53:06.349Z,32.20
2022-08-11T15:55:36.173Z,31.90
2022-08-11T15:58:25.937Z,32.00
2022-08-11T16:01:13.530Z,32.00
2022-08-11T16:04:12.191Z,32.00
2022-08-11T16:06:47.917Z,31.90
2022-08-11T16:09:21.786Z,31.70
2022-08-11T16:11:49.951Z,31.90
2022-08-11T16:14:37.105Z,31.70
2022-08-11T16:17:06.908Z,31.50
2022-08-11T16:19:36.456Z,31.50
2022-08-11T16:22:09.608Z,31.50
2022-08-11T16:27:03.990Z,31.50
2022-08-11T16:27:35.130Z,31.50
2022-08-11T16:30:03.033Z,31.60
2022-08-11T16:32:32.018Z,31.70
2022-08-11T16:35:20.114Z,31.70
2022-08-11T16:38:06.737Z,31.70
2022-08-11T16:40:34.418Z,31.60
2022-08-11T16:43:23.853Z,31.50
2022-08-11T16:46:18.446Z,31.40
2022-08-11T16:48:48.766Z,31.30
2022-08-11T16:51:16.279Z,31.30
2022-08-11T16:54:00.131Z,31.30
2022-08-11T16:56:57.222Z,31.20
2022-08-11T16:59:37.009Z,31.20
2022-08-11T17:02:09.006Z,31.20
2022-08-11T17:05:11.004Z,31.30
2022-08-11T17:08:07.479Z,31.10
2022-08-11T17:11:16.097Z,31.00
2022-08-11T17:13:54.825Z,31.00
2022-08-11T17:16:29.253Z,31.00
2022-08-11T17:19:05.312Z,30.90
2022-08-11T17:22:01.798Z,30.90
2022-08-11T17:24:31.570Z,30.90
2022-08-11T17:27:00.797Z,30.90
2022-08-11T17:29:54.764Z,30.90
2022-08-11T17:32:56.287Z,30.80
2022-08-11T17:35:34.811Z,30.70
2022-08-11T17:38:04.326Z,30.60
2022-08-11T17:40:33.971Z,30.60
2022-08-11T17:43:20.576Z,30.50
2022-08-11T17:46:08.393Z,30.40
2022-08-11T17:48:47.916Z,30.30
2022-08-11T17:51:39.268Z,30.30
2022-08-11T17:54:27.879Z,30.20
2022-08-11T17:57:21.246Z,30.20
2022-08-11T17:59:53.880Z,30.10
2022-08-11T18:02:53.424Z,30.10
2022-08-11T18:05:28.163Z,30.00
2022-08-11T18:08:16.483Z,29.90
2022-08-11T18:11:03.442Z,29.80
2022-08-11T18:13:51.345Z,29.80
2022-08-11T18:16:37.877Z,29.70
2022-08-11T18:19:25.467Z,29.60
2022-08-11T18:22:19.032Z,29.50
2022-08-11T18:25:12.095Z,29.50
2022-08-11T18:28:02.039Z,29.40
2022-08-11T18:30:50.646Z,29.30
2022-08-11T18:34:06.037Z,29.20
2022-08-11T18:37:00.497Z,29.20
2022-08-11T18:39:56.006Z,29.00
2022-08-11T18:42:43.097Z,28.90
2022-08-11T18:45:36.415Z,28.90
2022-08-11T18:48:37.492Z,28.70
2022-08-11T18:51:31.336Z,28.60
2022-08-11T18:54:28.477Z,28.50
2022-08-11T18:57:18.341Z,28.40
2022-08-11T19:00:05.422Z,28.30
2022-08-11T19:02:54.104Z,28.30
2022-08-11T19:06:32.010Z,28.20
2022-08-11T19:08:49.727Z,28.10
2022-08-11T19:11:42.802Z,28.10
2022-08-11T19:14:31.507Z,28.00
2022-08-11T19:17:43.286Z,27.90
2022-08-11T19:20:28.951Z,27.70
2022-08-11T19:23:16.223Z,27.60
2022-08-11T19:26:06.375Z,27.50
2022-08-11T19:28:55.237Z,27.50
2022-08-11T19:31:44.822Z,27.50
2022-08-11T19:34:34.361Z,27.50
2022-08-11T19:37:24.690Z,27.30
2022-08-11T19:40:13.409Z,27.30
2022-08-11T19:43:00.519Z,27.20
2022-08-11T19:45:52.589Z,27.20
2022-08-11T19:48:41.111Z,27.00
2022-08-11T19:51:28.547Z,26.80
2022-08-11T19:54:15.366Z,26.50
2022-08-11T19:57:02.387Z,26.20
2022-08-11T19:59:50.246Z,26.30
2022-08-11T20:02:36.797Z,26.40
2022-08-11T20:05:23.849Z,26.60
2022-08-11T20:08:10.826Z,26.80
2022-08-11T20:10:57.450Z,26.60
2022-08-11T20:13:45.516Z,26.40
2022-08-11T20:16:34.402Z,26.30
2022-08-11T20:19:25.977Z,26.20
2022-08-11T20:22:27.841Z,26.10
2022-08-11T20:25:14.224Z,25.90
2022-08-11T20:28:02.729Z,25.90
2022-08-11T20:30:51.843Z,25.80
2022-08-11T20:33:40.378Z,25.80
2022-08-11T20:36:26.815Z,25.80
2022-08-11T20:39:13.829Z,25.80
2022-08-11T20:42:00.674Z,25.80
2022-08-11T20:44:48.209Z,25.60
2022-08-11T20:47:59.225Z,25.60
2022-08-11T20:50:45.630Z,25.60
2022-08-11T20:53:35.586Z,25.60
2022-08-11T20:59:38.330Z,25.30
2022-08-11T21:02:27.255Z,25.10
2022-08-11T21:05:15.797Z,24.90
2022-08-11T21:08:09.521Z,24.80
2022-08-11T21:10:59.981Z,24.80
2022-08-11T21:13:51.361Z,24.80
2022-08-11T21:16:42.008Z,24.70
2022-08-11T21:20:00.388Z,24.90
2022-08-11T21:23:24.399Z,24.80
2022-08-11T21:26:32.173Z,24.70
2022-08-11T21:29:19.255Z,24.40
2022-08-11T21:32:06.228Z,24.30
2022-08-11T21:34:53.273Z,24.40
2022-08-11T21:37:40.183Z,24.60
2022-08-11T21:40:29.501Z,24.50
2022-08-11T21:43:17.041Z,24.20
2022-08-11T21:46:05.137Z,24.00
2022-08-11T21:48:51.121Z,23.90
2022-08-11T21:51:36.686Z,23.70
2022-08-11T21:54:27.062Z,23.60
2022-08-11T21:57:14.121Z,23.80
2022-08-11T22:00:16.637Z,23.90
2022-08-11T22:03:03.779Z,23.70
2022-08-11T22:05:51.775Z,23.80
2022-08-11T22:08:37.601Z,23.80
2022-08-11T22:11:31.802Z,23.80
2022-08-11T22:14:22.595Z,23.60
2022-08-11T22:17:08.873Z,23.60
2022-08-11T22:19:59.678Z,23.50
2022-08-11T22:22:52.324Z,23.40
2022-08-11T22:25:49.938Z,23.40
2022-08-11T22:28:38.490Z,23.30
2022-08-11T22:31:26.403Z,23.20
2022-08-11T22:34:12.065Z,23.10
2022-08-11T22:36:59.235Z,23.20
2022-08-11T22:39:45.266Z,23.20
2022-08-11T22:42:47.505Z,23.10
2022-08-11T22:45:33.252Z,22.80
2022-08-11T22:48:20.166Z,22.80
2022-08-11T22:51:06.302Z,22.80
2022-08-11T22:53:57.808Z,23.20
2022-08-11T22:56:47.082Z,23.30
2022-08-11T22:59:33.936Z,23.20
2022-08-11T23:02:22.435Z,23.10
2022-08-11T23:05:08.891Z,23.00
2022-08-11T23:07:55.897Z,22.80
2022-08-11T23:10:42.460Z,22.60
2022-08-11T23:13:28.087Z,22.50
2022-08-11T23:16:14.120Z,22.50
2022-08-11T23:19:00.573Z,22.70
2022-08-11T23:21:46.387Z,22.60
2022-08-11T23:24:32.270Z,22.60
2022-08-11T23:27:20.900Z,22.60
2022-08-11T23:30:09.541Z,22.60
2022-08-11T23:32:56.022Z,22.60
2022-08-11T23:35:54.887Z,22.50
2022-08-11T23:38:43.652Z,22.30
2022-08-11T23:41:31.574Z,22.20
2022-08-11T23:44:19.527Z,22.20
2022-08-11T23:47:09.023Z,22.00
2022-08-11T23:49:58.719Z,22.10
2022-08-11T23:52:46.329Z,22.10
2022-08-11T23:55:31.825Z,22.10
2022-08-11T23:58:17.424Z,22.10
